createdAt,value
2022-12-23T00:01:50.532Z,1.10
2022-12-23T00:04:17.260Z,0.95
2022-12-23T00:06:43.919Z,1.30
2022-12-23T00:09:10.514Z,1.25
2022-12-23T00:11:37.117Z,1.75
2022-12-23T00:14:22.393Z,5.97
2022-12-23T00:16:50.638Z,3.88
2022-12-23T00:19:17.560Z,1.95
2022-12-23T00:21:44.205Z,2.72
2022-12-23T00:24:11.807Z,2.20
2022-12-23T00:26:38.679Z,4.47
2022-12-23T00:29:05.654Z,4.32
2022-12-23T00:31:32.351Z,5.45
2022-12-23T00:33:59.001Z,3.10
2022-12-23T00:36:28.334Z,1.30
2022-12-23T00:39:14.672Z,1.77
2022-12-23T00:42:00.591Z,1.10
2022-12-23T00:44:27.392Z,1.10
2022-12-23T00:46:54.115Z,1.13
2022-12-23T00:49:40.002Z,0.80
2022-12-23T00:52:09.393Z,1.60
2022-12-23T00:54:36.493Z,1.55
2022-12-23T00:57:03.438Z,1.20
2022-12-23T00:59:30.075Z,2.45
2022-12-23T01:02:15.295Z,2.20
2022-12-23T01:05:00.496Z,2.00
2022-12-23T01:07:27.217Z,1.25
2022-12-23T01:09:53.839Z,0.80
2022-12-23T01:12:20.553Z,0.95
2022-12-23T01:14:47.263Z,1.00
2022-12-23T01:17:15.311Z,0.70
2022-12-23T01:19:42.036Z,0.80
2022-12-23T01:22:08.734Z,0.90
2022-12-23T01:24:35.367Z,1.13
2022-12-23T01:27:02.011Z,2.08
2022-12-23T01:29:29.041Z,1.45
2022-12-23T01:31:55.830Z,1.67
2022-12-23T01:34:22.644Z,0.95
2022-12-23T01:36:49.273Z,0.90
2022-12-23T01:39:15.942Z,0.90
2022-12-23T01:42:05.473Z,0.80
2022-12-23T01:44:51.720Z,0.80
2022-12-23T01:47:24.172Z,1.13
2022-12-23T01:49:56.506Z,0.80
2022-12-23T01:52:23.707Z,1.88
2022-12-23T01:54:50.537Z,0.70
2022-12-23T01:57:17.315Z,0.80
2022-12-23T02:00:03.800Z,0.90
2022-12-23T02:02:54.749Z,0.80
2022-12-23T02:05:23.800Z,1.80
2022-12-23T02:08:11.584Z,0.80
2022-12-23T02:11:03.388Z,0.85
2022-12-23T02:14:01.491Z,0.95
2022-12-23T02:16:31.720Z,1.38
2022-12-23T02:19:22.726Z,0.80
2022-12-23T02:22:14.736Z,0.90
2022-12-23T02:25:32.650Z,0.82
2022-12-23T02:28:11.092Z,0.70
2022-12-23T02:30:48.516Z,1.73
2022-12-23T02:33:29.485Z,1.63
2022-12-23T02:36:18.424Z,1.33
2022-12-23T02:39:19.274Z,0.90
2022-12-23T02:42:06.400Z,0.73
2022-12-23T02:44:48.552Z,0.88
2022-12-23T02:47:24.377Z,0.80
2022-12-23T02:49:55.840Z,0.85
2022-12-23T02:52:28.847Z,0.95
2022-12-23T02:55:03.184Z,0.90
2022-12-23T02:57:35.538Z,1.25
2022-12-23T03:00:03.551Z,1.33
2022-12-23T03:02:34.364Z,0.82
2022-12-23T03:05:01.376Z,1.17
2022-12-23T03:07:35.327Z,1.10
2022-12-23T03:10:08.193Z,1.38
2022-12-23T03:12:56.175Z,1.70
2022-12-23T03:15:31.536Z,0.88
2022-12-23T03:18:11.861Z,1.50
2022-12-23T03:21:13.342Z,0.93
2022-12-23T03:23:56.937Z,1.00
2022-12-23T03:26:39.024Z,1.05
2022-12-23T03:29:16.268Z,0.80
2022-12-23T03:31:44.427Z,1.13
2022-12-23T03:34:15.599Z,1.35
2022-12-23T03:36:47.593Z,1.48
2022-12-23T03:39:19.095Z,1.30
2022-12-23T03:41:52.544Z,1.00
2022-12-23T03:44:26.409Z,1.27
2022-12-23T03:47:05.710Z,1.70
2022-12-23T03:49:37.771Z,2.22
2022-12-23T03:52:21.654Z,0.90
2022-12-23T03:54:55.899Z,1.83
2022-12-23T03:57:28.758Z,0.93
2022-12-23T03:59:55.826Z,0.90
2022-12-23T04:02:37.525Z,1.10
2022-12-23T04:05:13.020Z,1.33
2022-12-23T04:07:46.277Z,3.22
2022-12-23T04:10:13.720Z,1.10
2022-12-23T04:12:40.747Z,0.82
2022-12-23T04:15:12.868Z,1.90
2022-12-23T04:17:40.289Z,1.70
2022-12-23T04:20:07.749Z,0.90
2022-12-23T04:22:34.367Z,0.75
2022-12-23T04:25:00.988Z,1.20
2022-12-23T04:27:27.608Z,1.00
2022-12-23T04:29:54.165Z,1.00
2022-12-23T04:32:20.874Z,1.92
2022-12-23T04:34:47.520Z,1.08
2022-12-23T04:37:14.171Z,1.38
2022-12-23T04:39:40.710Z,1.23
2022-12-23T04:42:07.411Z,1.33
2022-12-23T04:44:33.967Z,2.35
2022-12-23T04:47:00.747Z,1.92
2022-12-23T04:49:27.334Z,2.35
2022-12-23T04:51:53.952Z,1.67
2022-12-23T04:54:20.548Z,1.20
2022-12-23T04:56:47.283Z,1.48
2022-12-23T04:59:13.921Z,0.90
2022-12-23T05:01:42.369Z,1.60
2022-12-23T05:04:09.855Z,1.75
2022-12-23T05:06:37.238Z,1.70
2022-12-23T05:09:04.351Z,1.52
2022-12-23T05:11:34.927Z,0.75
2022-12-23T05:14:03.980Z,2.17
2022-12-23T05:16:31.655Z,0.90
2022-12-23T05:18:58.382Z,0.73
2022-12-23T05:21:25.025Z,2.78
2022-12-23T05:23:51.877Z,1.02
2022-12-23T05:26:18.769Z,1.35
2022-12-23T05:28:45.699Z,1.38
2022-12-23T05:31:13.606Z,1.55
2022-12-23T05:33:40.608Z,1.83
2022-12-23T05:36:07.538Z,2.30
2022-12-23T05:38:34.155Z,1.02
2022-12-23T05:41:00.771Z,1.20
2022-12-23T05:43:27.407Z,1.00
2022-12-23T05:45:54.121Z,1.25
2022-12-23T05:48:21.063Z,2.33
2022-12-23T05:50:52.153Z,1.88
2022-12-23T05:53:21.986Z,1.20
2022-12-23T05:55:48.692Z,0.80
2022-12-23T05:58:15.427Z,1.17
2022-12-23T06:00:42.071Z,1.95
2022-12-23T06:03:08.849Z,0.90
2022-12-23T06:05:37.743Z,1.65
2022-12-23T06:08:05.304Z,1.08
2022-12-23T06:10:31.979Z,1.85
2022-12-23T06:12:58.891Z,1.23
2022-12-23T06:15:25.753Z,2.42
2022-12-23T06:17:52.410Z,1.80
2022-12-23T06:20:20.934Z,2.50
2022-12-23T06:22:47.867Z,1.95
2022-12-23T06:25:15.039Z,2.00
2022-12-23T06:27:41.585Z,1.25
2022-12-23T06:30:09.099Z,2.90
2022-12-23T06:32:38.511Z,1.52
2022-12-23T06:35:07.095Z,1.88
2022-12-23T06:37:34.114Z,4.53
2022-12-23T06:40:00.721Z,4.15
2022-12-23T06:42:27.312Z,6.75
2022-12-23T06:44:54.035Z,19.67
2022-12-23T06:47:20.644Z,11.52
2022-12-23T06:49:47.352Z,13.77
2022-12-23T06:52:13.933Z,6.20
2022-12-23T06:54:40.570Z,6.35
2022-12-23T06:57:07.163Z,6.00
2022-12-23T06:59:33.807Z,5.45
2022-12-23T07:02:00.648Z,3.45
2022-12-23T07:04:27.367Z,6.65
2022-12-23T07:06:54.058Z,6.90
2022-12-23T07:09:20.694Z,6.88
2022-12-23T07:11:47.278Z,1.33
2022-12-23T07:14:15.320Z,1.23
2022-12-23T07:16:41.970Z,2.22
2022-12-23T07:19:08.591Z,1.40
2022-12-23T07:21:36.663Z,1.95
2022-12-23T07:24:03.443Z,2.40
2022-12-23T07:26:30.060Z,2.63
2022-12-23T07:28:56.645Z,2.63
2022-12-23T07:31:23.368Z,3.55
2022-12-23T07:33:50.066Z,2.70
2022-12-23T07:36:16.762Z,5.28
2022-12-23T07:38:44.411Z,3.50
2022-12-23T07:41:11.000Z,4.93
2022-12-23T07:43:37.626Z,3.75
2022-12-23T07:46:08.723Z,3.75
2022-12-23T07:48:35.831Z,3.83
2022-12-23T07:51:03.517Z,2.70
2022-12-23T07:53:30.202Z,3.22
2022-12-23T07:55:57.124Z,2.00
2022-12-23T07:58:24.509Z,3.60
2022-12-23T08:00:51.286Z,1.83
2022-12-23T08:03:18.023Z,3.55
2022-12-23T08:05:44.660Z,1.73
2022-12-23T08:08:11.930Z,2.20
2022-12-23T08:10:44.364Z,0.93
2022-12-23T08:13:14.621Z,1.63
2022-12-23T08:15:41.212Z,2.90
2022-12-23T08:18:08.174Z,4.72
2022-12-23T08:20:34.790Z,1.98
2022-12-23T08:23:01.421Z,2.30
2022-12-23T08:25:28.123Z,3.45
2022-12-23T08:27:54.773Z,2.67
2022-12-23T08:30:30.738Z,2.88
2022-12-23T08:32:57.493Z,1.30
2022-12-23T08:35:24.121Z,2.45
2022-12-23T08:37:55.029Z,2.20
2022-12-23T08:40:21.737Z,1.42
2022-12-23T08:42:49.539Z,1.77
2022-12-23T08:45:19.302Z,1.37
2022-12-23T08:47:48.229Z,2.90
2022-12-23T08:51:32.878Z,1.90
2022-12-23T08:53:47.912Z,2.45
2022-12-23T08:56:26.541Z,2.03
2022-12-23T08:58:55.542Z,4.70
2022-12-23T09:01:24.765Z,2.45
2022-12-23T09:03:52.357Z,4.38
2022-12-23T09:06:29.506Z,4.30
2022-12-23T09:08:57.616Z,2.50
2022-12-23T09:11:47.499Z,1.52
2022-12-23T09:14:23.336Z,2.90
2022-12-23T09:16:52.611Z,2.78
2022-12-23T09:19:20.413Z,3.25
2022-12-23T09:21:47.056Z,5.30
2022-12-23T09:24:13.718Z,5.03
2022-12-23T09:26:40.420Z,3.67
2022-12-23T09:29:07.010Z,6.50
2022-12-23T09:31:37.114Z,4.07
2022-12-23T09:34:05.061Z,6.45
2022-12-23T09:36:31.951Z,3.75
2022-12-23T09:38:58.815Z,1.73
2022-12-23T09:41:53.163Z,1.35
2022-12-23T09:44:43.119Z,1.75
2022-12-23T09:47:21.914Z,1.10
2022-12-23T09:49:56.736Z,1.90
2022-12-23T09:52:36.857Z,2.10
2022-12-23T09:55:03.974Z,1.45
2022-12-23T09:57:46.211Z,3.97
2022-12-23T10:00:19.091Z,3.08
2022-12-23T10:03:19.420Z,1.57
2022-12-23T10:06:01.356Z,2.40
2022-12-23T10:08:34.204Z,5.13
2022-12-23T10:11:07.148Z,1.85
2022-12-23T10:13:40.259Z,1.40
2022-12-23T10:16:21.356Z,1.98
2022-12-23T10:19:01.761Z,1.10
2022-12-23T10:21:50.240Z,1.88
2022-12-23T10:24:20.761Z,2.63
2022-12-23T10:26:55.186Z,1.50
2022-12-23T10:29:30.321Z,2.42
2022-12-23T10:32:40.418Z,2.65
2022-12-23T10:35:32.292Z,2.50
2022-12-23T10:38:04.611Z,5.18
2022-12-23T10:40:37.379Z,6.13
2022-12-23T10:43:45.803Z,11.85
2022-12-23T10:46:18.649Z,6.40
2022-12-23T10:49:22.824Z,6.55
2022-12-23T10:51:54.697Z,5.22
2022-12-23T10:54:26.885Z,5.35
2022-12-23T10:56:54.728Z,1.88
2022-12-23T10:59:31.615Z,2.30
2022-12-23T11:02:19.980Z,5.38
2022-12-23T11:04:49.564Z,4.07
2022-12-23T11:10:16.359Z,4.83
2022-12-23T11:12:47.327Z,3.92
2022-12-23T11:15:27.300Z,2.50
2022-12-23T11:18:03.092Z,1.50
2022-12-23T11:20:30.321Z,2.30
2022-12-23T11:23:01.784Z,1.73
2022-12-23T11:25:40.721Z,2.28
2022-12-23T11:28:10.654Z,1.30
2022-12-23T11:30:57.657Z,2.25
2022-12-23T11:33:33.582Z,1.40
2022-12-23T11:36:04.894Z,1.38
2022-12-23T11:38:32.612Z,1.88
2022-12-23T11:40:59.707Z,2.90
2022-12-23T11:43:27.911Z,1.90
2022-12-23T11:46:15.765Z,1.75
2022-12-23T11:48:42.573Z,5.60
2022-12-23T11:51:09.140Z,9.13
2022-12-23T11:53:36.692Z,5.10
2022-12-23T11:56:10.534Z,34.10
2022-12-23T11:58:46.933Z,15.75
2022-12-23T12:01:23.142Z,3.60
2022-12-23T12:03:55.730Z,10.65
2022-12-23T12:06:23.204Z,8.02
2022-12-23T12:08:52.632Z,3.83
2022-12-23T12:11:25.746Z,3.45
2022-12-23T12:14:02.445Z,3.63
2022-12-23T12:16:57.574Z,3.45
2022-12-23T12:19:37.130Z,1.70
2022-12-23T12:22:12.788Z,1.38
2022-12-23T12:24:43.963Z,2.42
2022-12-23T12:27:11.482Z,2.28
2022-12-23T12:29:41.908Z,2.80
2022-12-23T12:32:47.445Z,4.15
2022-12-23T12:35:22.755Z,2.22
2022-12-23T12:37:59.492Z,2.83
2022-12-23T12:40:52.704Z,1.83
2022-12-23T12:43:19.576Z,3.53
2022-12-23T12:46:13.451Z,1.30
2022-12-23T12:49:09.956Z,3.92
2022-12-23T12:51:42.554Z,11.68
2022-12-23T12:54:54.950Z,10.50
2022-12-23T12:57:23.522Z,5.97
2022-12-23T12:59:53.554Z,6.03
2022-12-23T13:02:44.410Z,6.93
2022-12-23T13:05:10.978Z,7.25
2022-12-23T13:07:51.048Z,10.57
2022-12-23T13:10:59.644Z,3.50
2022-12-23T13:13:43.590Z,7.03
2022-12-23T13:16:37.594Z,5.57
2022-12-23T13:19:32.869Z,2.88
2022-12-23T13:22:13.512Z,3.78
2022-12-23T13:24:58.625Z,3.13
2022-12-23T13:27:34.637Z,3.42
2022-12-23T13:30:03.340Z,2.60
2022-12-23T13:32:45.455Z,3.20
2022-12-23T13:35:12.005Z,3.97
2022-12-23T13:37:56.843Z,2.97
2022-12-23T13:40:29.088Z,6.20
2022-12-23T13:42:59.514Z,6.15
2022-12-23T13:45:36.391Z,4.80
2022-12-23T13:48:28.720Z,1.88
2022-12-23T13:51:18.832Z,1.95
2022-12-23T13:54:05.009Z,2.05
2022-12-23T13:56:42.914Z,2.83
2022-12-23T13:59:11.692Z,4.30
2022-12-23T14:01:41.456Z,11.70
2022-12-23T14:04:32.903Z,7.75
2022-12-23T14:07:07.117Z,5.22
2022-12-23T14:09:38.057Z,2.47
2022-12-23T14:12:12.484Z,1.65
2022-12-23T14:14:49.266Z,2.60
2022-12-23T14:17:27.184Z,2.03
2022-12-23T14:20:51.135Z,3.63
2022-12-23T14:23:39.094Z,48.10
2022-12-23T14:26:24.260Z,27.83
2022-12-23T14:28:59.956Z,38.05
2022-12-23T14:31:40.925Z,27.00
2022-12-23T14:34:17.228Z,21.52
2022-12-23T14:37:21.132Z,19.38
2022-12-23T14:39:48.856Z,12.32
2022-12-23T14:42:34.224Z,8.88
2022-12-23T14:45:33.787Z,5.00
2022-12-23T14:48:00.624Z,4.30
2022-12-23T14:50:34.667Z,4.18
2022-12-23T14:53:21.689Z,7.88
2022-12-23T14:55:49.802Z,5.32
2022-12-23T14:58:16.308Z,2.35
2022-12-23T15:01:04.236Z,3.42
2022-12-23T15:03:35.074Z,4.70
2022-12-23T15:06:06.197Z,5.45
2022-12-23T15:08:42.009Z,5.90
2022-12-23T15:11:20.865Z,3.60
2022-12-23T15:13:48.785Z,3.67
2022-12-23T15:16:17.690Z,3.63
2022-12-23T15:18:55.007Z,5.03
2022-12-23T15:21:28.893Z,6.65
2022-12-23T15:23:55.707Z,5.40
2022-12-23T15:26:27.823Z,5.15
2022-12-23T15:28:55.179Z,6.75
2022-12-23T15:31:27.525Z,6.50
2022-12-23T15:34:05.451Z,4.80
2022-12-23T15:36:40.388Z,6.47
2022-12-23T15:39:15.392Z,10.88
2022-12-23T15:41:47.032Z,5.60
2022-12-23T15:44:20.657Z,6.00
2022-12-23T15:46:49.092Z,5.13
2022-12-23T15:49:16.581Z,6.07
2022-12-23T15:54:38.856Z,14.90
2022-12-23T15:57:05.826Z,12.98
2022-12-23T15:59:36.327Z,10.40
2022-12-23T16:02:49.606Z,7.63
2022-12-23T16:05:05.132Z,9.77
2022-12-23T16:07:34.704Z,10.25
2022-12-23T16:10:14.208Z,11.10
2022-12-23T16:12:41.520Z,11.53
2022-12-23T16:15:29.091Z,7.85
2022-12-23T16:18:12.183Z,10.65
2022-12-23T16:20:45.740Z,13.40
2022-12-23T16:23:13.415Z,20.88
2022-12-23T16:25:48.533Z,18.83
2022-12-23T16:28:27.140Z,16.20
2022-12-23T16:30:57.400Z,15.32
2022-12-23T16:33:38.402Z,15.32
2022-12-23T16:36:27.031Z,7.82
2022-12-23T16:39:11.436Z,6.43
2022-12-23T16:41:38.191Z,5.32
2022-12-23T16:44:04.916Z,8.30
2022-12-23T16:46:36.309Z,10.60
2022-12-23T16:49:06.087Z,13.25
2022-12-23T16:51:34.255Z,9.63
2022-12-23T16:54:01.705Z,10.00
2022-12-23T16:56:33.880Z,6.60
2022-12-23T16:59:00.502Z,3.88
2022-12-23T17:01:33.600Z,3.35
2022-12-23T17:04:00.434Z,3.40
2022-12-23T17:06:27.192Z,1.65
2022-12-23T17:08:54.493Z,2.10
2022-12-23T17:11:39.318Z,2.53
2022-12-23T17:14:11.879Z,19.63
2022-12-23T17:16:42.112Z,7.63
2022-12-23T17:19:08.842Z,28.45
2022-12-23T17:21:37.282Z,11.32
2022-12-23T17:24:23.193Z,3.63
2022-12-23T17:26:50.441Z,3.38
2022-12-23T17:29:17.051Z,2.20
2022-12-23T17:31:44.689Z,3.03
2022-12-23T17:34:15.937Z,2.88
2022-12-23T17:36:49.241Z,3.92
2022-12-23T17:39:16.347Z,5.15
2022-12-23T17:41:43.101Z,5.50
2022-12-23T17:44:14.013Z,11.00
2022-12-23T17:46:40.671Z,14.70
2022-12-23T17:49:08.841Z,14.90
2022-12-23T17:51:35.823Z,18.50
2022-12-23T17:54:04.699Z,20.33
2022-12-23T17:56:31.441Z,29.58
2022-12-23T17:58:58.695Z,26.25
2022-12-23T18:01:28.684Z,21.27
2022-12-23T18:03:56.793Z,36.67
2022-12-23T18:06:25.329Z,26.03
2022-12-23T18:08:52.133Z,22.77
2022-12-23T18:11:27.186Z,24.63
2022-12-23T18:13:54.194Z,37.55
2022-12-23T18:16:20.973Z,44.80
2022-12-23T18:18:47.892Z,28.33
2022-12-23T18:21:22.829Z,12.55
2022-12-23T18:23:50.410Z,16.73
2022-12-23T18:26:17.050Z,15.88
2022-12-23T18:28:44.619Z,14.52
2022-12-23T18:31:17.269Z,18.37
2022-12-23T18:33:43.993Z,16.35
2022-12-23T18:36:32.919Z,22.63
2022-12-23T18:39:00.257Z,16.05
2022-12-23T18:41:27.354Z,24.70
2022-12-23T18:43:54.512Z,17.97
2022-12-23T18:46:21.444Z,21.15
2022-12-23T18:48:48.434Z,20.15
2022-12-23T18:51:16.877Z,9.63
2022-12-23T18:53:44.454Z,8.98
2022-12-23T18:56:15.764Z,16.83
2022-12-23T18:58:42.885Z,9.85
2022-12-23T19:01:14.260Z,6.85
2022-12-23T19:03:41.539Z,4.40
2022-12-23T19:06:11.713Z,1.73
2022-12-23T19:08:39.332Z,4.10
2022-12-23T19:11:18.400Z,9.40
2022-12-23T19:13:45.749Z,9.65
2022-12-23T19:16:18.473Z,9.68
2022-12-23T19:18:46.531Z,14.50
2022-12-23T19:21:13.719Z,12.37
2022-12-23T19:23:41.546Z,12.85
2022-12-23T19:26:13.301Z,13.80
2022-12-23T19:28:43.959Z,18.30
2022-12-23T19:31:13.007Z,16.60
2022-12-23T19:33:41.455Z,19.90
2022-12-23T19:36:12.168Z,19.38
2022-12-23T19:38:38.887Z,24.70
2022-12-23T19:41:07.201Z,20.67
2022-12-23T19:43:35.040Z,19.42
2022-12-23T19:46:05.095Z,19.47
2022-12-23T19:48:31.991Z,20.65
2022-12-23T19:51:00.363Z,17.17
2022-12-23T19:53:27.818Z,14.02
2022-12-23T19:55:59.069Z,9.00
2022-12-23T19:58:27.334Z,16.97
2022-12-23T20:01:05.732Z,6.65
2022-12-23T20:03:32.393Z,8.40
2022-12-23T20:05:59.023Z,9.73
2022-12-23T20:08:25.675Z,11.65
2022-12-23T20:11:02.848Z,9.60
2022-12-23T20:13:29.569Z,10.20
2022-12-23T20:15:56.180Z,10.60
2022-12-23T20:18:23.130Z,12.10
2022-12-23T20:20:49.708Z,13.07
2022-12-23T20:23:16.398Z,14.03
2022-12-23T20:25:43.023Z,16.05
2022-12-23T20:28:09.690Z,11.73
2022-12-23T20:30:36.749Z,15.98
2022-12-23T20:33:03.485Z,16.02
2022-12-23T20:35:30.665Z,11.63
2022-12-23T20:37:57.243Z,27.58
2022-12-23T20:40:23.867Z,34.15
2022-12-23T20:42:50.543Z,28.02
2022-12-23T20:45:17.165Z,30.60
2022-12-23T20:47:43.939Z,19.97
2022-12-23T20:50:10.517Z,20.27
2022-12-23T20:52:37.099Z,15.55
2022-12-23T20:55:04.043Z,34.80
2022-12-23T20:57:31.730Z,25.42
2022-12-23T20:59:58.315Z,21.87
2022-12-23T21:02:24.960Z,32.28
2022-12-23T21:04:51.606Z,29.55
2022-12-23T21:07:18.576Z,17.58
2022-12-23T21:09:45.134Z,23.10
2022-12-23T21:12:11.921Z,23.03
2022-12-23T21:14:38.530Z,13.95
2022-12-23T21:17:05.226Z,16.60
2022-12-23T21:19:31.989Z,16.05
2022-12-23T21:21:58.608Z,12.55
2022-12-23T21:24:25.814Z,8.83
2022-12-23T21:26:57.085Z,9.60
2022-12-23T21:29:24.456Z,3.92
2022-12-23T21:31:51.236Z,5.60
2022-12-23T21:34:18.054Z,13.52
2022-12-23T21:36:44.765Z,7.07
2022-12-23T21:39:15.130Z,2.92
2022-12-23T21:41:41.911Z,3.67
2022-12-23T21:44:10.464Z,5.68
2022-12-23T21:46:37.135Z,8.05
2022-12-23T21:49:04.114Z,17.87
2022-12-23T21:51:39.618Z,3.80
2022-12-23T21:54:08.226Z,6.70
2022-12-23T21:56:34.962Z,4.45
2022-12-23T21:59:07.936Z,5.00
2022-12-23T22:01:35.264Z,2.57
2022-12-23T22:04:02.135Z,2.17
2022-12-23T22:06:31.932Z,2.67
2022-12-23T22:08:59.432Z,3.35
2022-12-23T22:11:29.785Z,17.73
2022-12-23T22:14:00.589Z,34.50
2022-12-23T22:16:29.300Z,39.40
2022-12-23T22:18:57.381Z,38.85
2022-12-23T22:21:25.453Z,36.90
2022-12-23T22:23:53.918Z,26.52
2022-12-23T22:26:26.410Z,23.90
2022-12-23T22:28:58.535Z,16.63
2022-12-23T22:31:41.753Z,15.23
2022-12-23T22:34:13.488Z,13.40
2022-12-23T22:36:40.187Z,19.67
2022-12-23T22:39:08.062Z,27.90
2022-12-23T22:41:35.294Z,20.48
2022-12-23T22:44:01.884Z,20.35
2022-12-23T22:46:28.937Z,13.75
2022-12-23T22:48:56.360Z,10.25
2022-12-23T22:51:26.743Z,16.93
2022-12-23T22:53:54.095Z,17.02
2022-12-23T22:56:22.291Z,14.50
2022-12-23T22:58:49.750Z,14.00
2022-12-23T23:01:22.805Z,15.27
2022-12-23T23:03:56.707Z,10.53
2022-12-23T23:06:31.868Z,8.65
2022-12-23T23:08:58.936Z,10.75
2022-12-23T23:11:26.944Z,10.63
2022-12-23T23:13:54.191Z,7.32
2022-12-23T23:16:20.962Z,8.10
2022-12-23T23:18:47.742Z,7.32
2022-12-23T23:21:14.605Z,6.78
2022-12-23T23:23:41.379Z,10.05
2022-12-23T23:26:11.193Z,8.95
2022-12-23T23:28:39.501Z,8.30
2022-12-23T23:31:39.613Z,12.18
2022-12-23T23:33:53.797Z,11.73
2022-12-23T23:36:20.445Z,37.88
2022-12-23T23:38:47.116Z,26.48
2022-12-23T23:41:17.395Z,24.50
2022-12-23T23:43:48.963Z,18.58
2022-12-23T23:46:15.611Z,6.57
2022-12-23T23:48:42.280Z,4.22
2022-12-23T23:51:08.849Z,5.10
2022-12-23T23:53:35.586Z,3.93
2022-12-23T23:56:07.117Z,3.60
2022-12-23T23:58:34.927Z,2.38
